VQTU weather

Thimphu Heliport
Thimphu, Thimphu, Bhutan

Public forecast

Using degrees Celsius for public forecast. Weather courtesy of forecast.io.

Closest aviation weather report (METAR) to Thimphu Heliport

Closest report is Paro Airport, 12.6 nm (23.4 km) WSW. Retrieved 2020/04/04 10:30 UTC (59 minutes ago):

VQPR 041030Z 13020G33KT 9999 FEW030 SCT060 17/01 Q1017

Closest aviation forecast (TAF) to Thimphu Heliport

Closest forecast is Bagdogra Airport, 84.7 nm (156.8 km) WSW. Retrieved 2020/04/04 06:30 UTC (5 hours ago):

TAF VEBD 040330Z 0406/0418 10005KTS 6000 FEW030 TEMPO 0410/0414 FEW030TCU